Time;durP1;ratioP1;P1;durP2;ratioP2;P2;SDS_P1;SDS_P2;PMS_P1;PMS_P2;Temp;Humidity;BMP_temperature;BMP_pressure;BME280_temperature;BME280_humidity;BME280_pressure;Samples;Min_cycle;Max_cycle;Signal;HPM_P1;HPM_P2
2022/09/26 00:01:54;;;;;;;0.10;0.10;;;11.80;99.90;;;;;;4871877;29;20041;-78
2022/09/26 00:04:22;;;;;;;0.10;0.10;;;11.70;99.90;;;;;;4857620;29;20044;-77
2022/09/26 00:06:48;;;;;;;0.20;0.20;;;11.60;99.90;;;;;;4860146;29;20049;-77
2022/09/26 00:09:15;;;;;;;0.35;0.35;;;11.60;99.90;;;;;;4875129;29;20077;-78
2022/09/26 00:11:41;;;;;;;0.20;0.20;;;11.60;99.90;;;;;;4877477;29;20106;-77
2022/09/26 00:14:23;;;;;;;0.15;0.15;;;11.60;99.90;;;;;;4876440;29;20049;-78
2022/09/26 00:16:51;;;;;;;;;;;11.70;99.90;;;;;;4876408;29;20634;-78
2022/09/26 00:19:17;;;;;;;0.10;0.10;;;11.60;99.90;;;;;;4873866;29;19924;-77
2022/09/26 00:21:43;;;;;;;0.10;0.10;;;11.60;99.90;;;;;;4873028;29;20051;-78
2022/09/26 00:24:13;;;;;;;0.20;0.20;;;11.50;99.90;;;;;;4870505;29;20504;-78
2022/09/26 00:26:38;;;;;;;0.20;0.20;;;11.70;99.90;;;;;;4872770;29;20073;-78
2022/09/26 00:29:07;;;;;;;0.20;0.20;;;11.90;99.90;;;;;;4875607;29;20534;-77
2022/09/26 00:31:37;;;;;;;0.10;0.10;;;11.70;99.90;;;;;;4855064;29;20055;-78
2022/09/26 00:34:06;;;;;;;0.20;0.20;;;11.60;99.90;;;;;;4871045;29;20139;-77
2022/09/26 00:36:32;;;;;;;0.10;0.10;;;11.60;99.90;;;;;;4864144;29;20088;-79
2022/09/26 00:38:59;;;;;;;0.20;0.20;;;11.60;99.90;;;;;;4875053;29;20048;-77
2022/09/26 00:41:25;;;;;;;0.20;0.20;;;11.60;99.90;;;;;;4876373;29;20097;-77
2022/09/26 00:43:53;;;;;;;0.20;0.20;;;11.60;99.90;;;;;;4877298;29;20045;-77
2022/09/26 00:46:43;;;;;;;0.20;0.20;;;11.60;99.90;;;;;;4873557;29;20486;-78
2022/09/26 00:49:24;;;;;;;0.10;0.10;;;11.60;99.90;;;;;;4886884;29;20060;-78
2022/09/26 00:51:57;;;;;;;0.20;0.20;;;11.60;99.90;;;;;;4858521;29;20454;-77
2022/09/26 00:54:24;;;;;;;0.20;0.20;;;11.60;99.90;;;;;;4856941;29;20536;-78
2022/09/26 00:56:53;;;;;;;0.20;0.20;;;11.60;99.90;;;;;;4873209;29;20056;-77
2022/09/26 00:59:26;;;;;;;0.20;0.20;;;11.70;99.90;;;;;;4865852;29;20044;-77
2022/09/26 01:01:55;;;;;;;0.10;0.10;;;11.60;99.90;;;;;;4860749;29;20041;-78
2022/09/26 01:04:24;;;;;;;0.20;0.20;;;11.60;99.90;;;;;;4855616;29;20049;-78
2022/09/26 01:06:50;;;;;;;0.20;0.20;;;11.60;99.90;;;;;;4874180;29;20053;-78
2022/09/26 01:09:17;;;;;;;0.20;0.20;;;11.70;99.90;;;;;;4854605;29;21561;-79
2022/09/26 01:11:44;;;;;;;0.20;0.20;;;11.70;99.90;;;;;;4874338;29;20048;-78
2022/09/26 01:14:11;;;;;;;0.20;0.20;;;11.60;99.90;;;;;;4855771;29;20446;-77
2022/09/26 01:16:39;;;;;;;0.10;0.10;;;11.70;99.90;;;;;;4876048;29;20116;-78
2022/09/26 01:19:24;;;;;;;0.20;0.20;;;11.70;99.90;;;;;;4854513;29;20087;-78
2022/09/26 01:22:17;;;;;;;0.20;0.20;;;11.70;99.90;;;;;;4875359;29;20053;-78
2022/09/26 01:25:10;;;;;;;0.20;0.20;;;11.70;99.90;;;;;;4867805;29;20132;-78
2022/09/26 01:28:13;;;;;;;0.20;0.20;;;11.70;99.90;;;;;;4875474;29;20053;-78
2022/09/26 01:30:58;;;;;;;0.20;0.20;;;11.70;99.90;;;;;;4855872;29;20064;-78
2022/09/26 01:33:42;;;;;;;0.20;0.20;;;11.70;99.90;;;;;;4870553;29;20041;-77
2022/09/26 01:36:41;;;;;;;0.20;0.20;;;11.70;99.90;;;;;;4859189;29;20052;-78
2022/09/26 01:39:39;;;;;;;0.20;0.20;;;11.70;99.90;;;;;;4873754;29;20045;-79
2022/09/26 01:42:46;;;;;;;0.13;0.13;;;11.60;99.90;;;;;;4856088;29;20408;-77
2022/09/26 01:45:12;;;;;;;0.10;0.10;;;11.60;99.90;;;;;;4765655;30;20051;-78
2022/09/26 01:47:59;;;;;;;0.20;0.20;;;11.60;99.90;;;;;;4838296;29;20072;-78
2022/09/26 01:50:46;;;;;;;0.20;0.20;;;11.60;99.90;;;;;;4854242;29;20045;-78
2022/09/26 01:53:39;;;;;;;0.20;0.20;;;11.60;99.90;;;;;;4858267;29;20053;-77
2022/09/26 01:56:11;;;;;;;0.20;0.20;;;11.60;99.90;;;;;;4852416;29;20091;-78
2022/09/26 01:58:44;;;;;;;0.20;0.20;;;11.60;99.90;;;;;;4875318;29;20044;-78
2022/09/26 02:01:13;;;;;;;0.20;0.20;;;11.60;99.90;;;;;;4874316;29;20091;-78
2022/09/26 02:03:45;;;;;;;0.20;0.20;;;11.50;99.90;;;;;;4857581;29;20124;-79
2022/09/26 02:06:17;;;;;;;0.20;0.20;;;11.50;99.90;;;;;;4874488;29;20048;-77
2022/09/26 02:08:55;;;;;;;0.20;0.20;;;11.60;99.90;;;;;;4875061;29;20048;-78
2022/09/26 02:11:21;;;;;;;0.20;0.20;;;11.60;99.90;;;;;;4858373;29;20053;-78
2022/09/26 02:14:02;;;;;;;0.20;0.20;;;11.50;99.90;;;;;;4874772;29;20557;-78
2022/09/26 02:16:39;;;;;;;0.20;0.20;;;11.50;99.90;;;;;;4873966;29;20141;-78
2022/09/26 02:19:28;;;;;;;0.20;0.20;;;11.50;99.90;;;;;;4858164;29;20045;-78
2022/09/26 02:21:57;;;;;;;0.10;0.10;;;11.50;99.90;;;;;;4875578;29;20385;-78
2022/09/26 02:24:23;;;;;;;0.10;0.10;;;11.50;99.90;;;;;;4879073;29;20429;-78
2022/09/26 02:26:52;;;;;;;0.15;0.15;;;11.50;99.90;;;;;;4874134;29;20049;-79
2022/09/26 02:29:19;;;;;;;0.10;0.10;;;11.50;99.90;;;;;;4856224;29;20053;-77
2022/09/26 02:32:11;;;;;;;0.20;0.20;;;11.40;99.90;;;;;;4873205;29;20124;-78
2022/09/26 02:34:40;;;;;;;0.20;0.20;;;11.40;99.90;;;;;;4871311;29;20041;-78
2022/09/26 02:37:07;;;;;;;0.10;0.10;;;11.40;99.90;;;;;;4875234;29;20045;-78
2022/09/26 02:39:33;;;;;;;0.20;0.20;;;11.40;99.90;;;;;;4874784;29;20065;-77
2022/09/26 02:42:20;;;;;;;0.20;0.20;;;11.40;99.90;;;;;;4876958;29;20033;-76
2022/09/26 02:45:10;;;;;;;0.20;0.20;;;11.30;99.90;;;;;;4865455;29;20048;-77
2022/09/26 02:48:01;;;;;;;0.10;0.10;;;11.40;99.90;;;;;;4846012;29;20131;-78
2022/09/26 02:50:38;;;;;;;0.15;0.15;;;11.30;99.90;;;;;;4857290;29;20084;-77
2022/09/26 02:53:36;;;;;;;0.10;0.10;;;11.30;99.90;;;;;;4856636;29;20045;-78
2022/09/26 02:56:27;;;;;;;0.10;0.10;;;11.30;99.90;;;;;;4859641;29;20045;-77
2022/09/26 02:59:06;;;;;;;0.20;0.20;;;11.30;99.90;;;;;;4863147;29;20068;-78
2022/09/26 03:01:52;;;;;;;0.20;0.20;;;11.20;99.90;;;;;;4864361;29;20053;-78
2022/09/26 03:04:25;;;;;;;0.10;0.10;;;11.20;99.90;;;;;;4878358;29;20049;-77
2022/09/26 03:06:57;;;;;;;0.20;0.20;;;11.20;99.90;;;;;;4879908;29;20509;-76
2022/09/26 03:09:24;;;;;;;;;;;11.20;99.90;;;;;;4871548;29;20119;-77
2022/09/26 03:11:51;;;;;;;0.13;0.13;;;11.20;99.90;;;;;;4862068;29;19942;-76
2022/09/26 03:14:19;;;;;;;0.20;0.20;;;11.10;99.90;;;;;;4875083;29;20068;-77
2022/09/26 03:16:46;;;;;;;0.20;0.20;;;11.10;99.90;;;;;;4865334;29;20056;-77
2022/09/26 03:19:28;;;;;;;0.20;0.20;;;11.10;99.90;;;;;;4861781;29;20052;-78
2022/09/26 03:21:54;;;;;;;0.10;0.10;;;11.10;99.90;;;;;;4861801;29;20053;-78
2022/09/26 03:24:22;;;;;;;0.10;0.10;;;11.30;99.90;;;;;;4858372;29;20097;-77
2022/09/26 03:26:49;;;;;;;0.13;0.13;;;11.10;99.90;;;;;;4875535;29;20505;-78
2022/09/26 03:29:16;;;;;;;0.20;0.20;;;11.10;99.90;;;;;;4863386;29;20044;-76
2022/09/26 03:31:43;;;;;;;0.20;0.20;;;11.10;99.90;;;;;;4856950;29;20127;-78
2022/09/26 03:34:09;;;;;;;0.20;0.20;;;11.10;99.90;;;;;;4863554;29;20052;-78
2022/09/26 03:36:35;;;;;;;0.17;0.17;;;11.10;99.90;;;;;;4876758;29;20093;-78
2022/09/26 03:39:01;;;;;;;0.20;0.20;;;11.10;99.90;;;;;;4861657;29;20056;-76
2022/09/26 03:41:26;;;;;;;0.20;0.20;;;11.10;99.90;;;;;;4858952;29;20140;-78
2022/09/26 03:43:55;;;;;;;0.15;0.15;;;11.10;99.90;;;;;;4874227;29;20412;-77
2022/09/26 03:46:23;;;;;;;0.20;0.20;;;11.10;99.90;;;;;;4874396;29;20405;-78
2022/09/26 03:48:49;;;;;;;0.10;0.10;;;11.10;99.90;;;;;;4880014;29;20056;-78
2022/09/26 03:51:16;;;;;;;0.17;0.17;;;11.10;99.90;;;;;;4859805;29;20080;-77
2022/09/26 03:53:43;;;;;;;0.10;0.10;;;11.10;99.90;;;;;;4886395;29;20947;-74
2022/09/26 03:56:11;;;;;;;0.20;0.20;;;11.10;99.90;;;;;;4860781;29;20040;-76
2022/09/26 03:58:37;;;;;;;0.10;0.10;;;11.10;99.90;;;;;;4871620;29;20045;-77
2022/09/26 04:01:06;;;;;;;0.28;0.28;;;11.10;99.90;;;;;;4876408;29;20454;-76
2022/09/26 04:03:34;;;;;;;0.20;0.20;;;11.10;99.90;;;;;;4862359;29;20441;-77
2022/09/26 04:06:04;;;;;;;0.20;0.20;;;11.10;99.90;;;;;;4859620;29;20084;-76
2022/09/26 04:08:30;;;;;;;0.10;0.10;;;11.10;99.90;;;;;;4876005;29;20140;-76
2022/09/26 04:11:01;;;;;;;0.20;0.20;;;11.10;99.90;;;;;;4872879;29;20048;-75
2022/09/26 04:13:27;;;;;;;0.20;0.20;;;11.00;99.90;;;;;;4874899;29;20527;-77
2022/09/26 04:15:57;;;;;;;0.20;0.20;;;11.00;99.90;;;;;;4872556;29;20033;-77
2022/09/26 04:18:23;;;;;;;0.20;0.20;;;11.00;99.90;;;;;;4875337;29;20045;-76
2022/09/26 04:20:49;;;;;;;0.20;0.20;;;11.10;99.90;;;;;;4860584;29;20105;-76
2022/09/26 04:23:14;;;;;;;0.15;0.15;;;11.10;99.90;;;;;;4877351;29;20105;-77
2022/09/26 04:25:40;;;;;;;0.10;0.10;;;11.10;99.90;;;;;;4877515;29;20044;-76
2022/09/26 04:28:07;;;;;;;0.13;0.13;;;11.10;99.90;;;;;;4891779;29;20044;-77
2022/09/26 04:30:35;;;;;;;0.15;0.15;;;11.10;99.90;;;;;;4855527;29;20052;-78
2022/09/26 04:33:01;;;;;;;0.20;0.20;;;11.00;99.90;;;;;;4855364;29;20057;-77
2022/09/26 04:35:26;;;;;;;0.10;0.10;;;11.10;99.90;;;;;;4858335;29;20048;-76
2022/09/26 04:37:52;;;;;;;0.20;0.20;;;11.10;99.90;;;;;;4870910;29;20048;-77
2022/09/26 04:40:17;;;;;;;0.10;0.10;;;11.10;99.90;;;;;;4855326;29;20083;-76
2022/09/26 04:42:43;;;;;;;0.17;0.17;;;11.00;99.90;;;;;;4870360;29;20060;-75
2022/09/26 04:45:12;;;;;;;0.10;0.10;;;11.00;99.90;;;;;;4874964;29;20431;-76
2022/09/26 04:47:40;;;;;;;0.10;0.10;;;11.10;99.90;;;;;;4852790;29;20053;-75
2022/09/26 04:50:06;;;;;;;0.22;0.22;;;11.00;99.90;;;;;;4854305;29;20105;-77
2022/09/26 04:52:32;;;;;;;0.10;0.10;;;11.00;99.90;;;;;;4872471;29;20076;-76
2022/09/26 04:54:57;;;;;;;0.17;0.17;;;11.00;99.90;;;;;;4852599;29;20105;-77
2022/09/26 04:57:23;;;;;;;0.20;0.20;;;11.00;99.90;;;;;;4853465;29;20101;-77
2022/09/26 04:59:49;;;;;;;0.20;0.20;;;11.00;99.90;;;;;;4870976;29;20128;-77
2022/09/26 05:02:14;;;;;;;0.10;0.10;;;11.00;99.90;;;;;;4872649;29;20109;-78
2022/09/26 05:04:40;;;;;;;0.17;0.17;;;11.00;99.90;;;;;;4853254;29;20053;-76
2022/09/26 05:07:06;;;;;;;0.10;0.10;;;11.00;99.90;;;;;;4875055;29;20084;-78
2022/09/26 05:09:32;;;;;;;0.15;0.15;;;11.20;99.90;;;;;;4872982;29;20087;-77
2022/09/26 05:11:57;;;;;;;0.20;0.20;;;11.00;99.90;;;;;;4857605;29;20041;-77
2022/09/26 05:14:24;;;;;;;0.20;0.20;;;10.90;99.90;;;;;;4853344;29;20045;-76
2022/09/26 05:16:49;;;;;;;0.10;0.10;;;10.90;99.90;;;;;;4854730;29;20041;-75
2022/09/26 05:19:25;;;;;;;0.17;0.17;;;10.90;99.90;;;;;;4868744;29;22091;-76
2022/09/26 05:21:51;;;;;;;0.20;0.20;;;10.90;99.90;;;;;;4858457;29;20064;-78
2022/09/26 05:27:05;;;;;;;0.17;0.17;;;11.00;99.90;;;;;;4853410;29;20052;-78
2022/09/26 05:29:30;;;;;;;0.10;0.10;;;10.90;99.90;;;;;;4854366;29;20065;-77
2022/09/26 05:32:01;;;;;;;0.10;0.10;;;10.90;99.90;;;;;;4853163;29;20497;-78
2022/09/26 05:34:27;;;;;;;0.20;0.20;;;10.90;99.90;;;;;;4869680;29;20052;-77
2022/09/26 05:36:53;;;;;;;0.10;0.10;;;10.90;99.90;;;;;;4853976;29;20045;-76
2022/09/26 05:42:06;;;;;;;0.10;0.10;;;10.90;99.90;;;;;;4870141;29;20067;-75
2022/09/26 05:44:32;;;;;;;0.10;0.10;;;10.90;99.90;;;;;;4871777;29;20056;-76
2022/09/26 05:46:58;;;;;;;0.20;0.20;;;10.90;99.90;;;;;;4858597;29;20045;-78
2022/09/26 05:49:24;;;;;;;0.13;0.13;;;10.80;99.90;;;;;;4859573;29;20053;-75
2022/09/26 05:51:51;;;;;;;0.10;0.10;;;10.90;99.90;;;;;;4859090;29;20049;-75
2022/09/26 05:54:17;;;;;;;0.20;0.20;;;10.90;99.90;;;;;;4854452;29;20059;-77
2022/09/26 05:56:42;;;;;;;0.20;0.20;;;10.90;99.90;;;;;;4858389;29;20037;-75
2022/09/26 05:59:08;;;;;;;0.20;0.20;;;10.80;99.90;;;;;;4873687;29;20049;-75
2022/09/26 06:01:34;;;;;;;0.13;0.13;;;10.80;99.90;;;;;;4852477;29;20049;-76
2022/09/26 06:04:03;;;;;;;0.20;0.20;;;10.90;99.90;;;;;;4870053;29;20194;-75
2022/09/26 06:06:29;;;;;;;0.20;0.20;;;10.80;99.90;;;;;;4875008;29;20051;-76
2022/09/26 06:08:58;;;;;;;0.20;0.20;;;10.80;99.90;;;;;;4854814;29;20048;-76
2022/09/26 06:11:26;;;;;;;0.20;0.20;;;10.80;99.90;;;;;;4866508;29;20059;-76
2022/09/26 06:13:54;;;;;;;0.20;0.20;;;10.80;99.90;;;;;;4868086;29;20128;-75
2022/09/26 06:16:20;;;;;;;0.20;0.20;;;10.80;99.90;;;;;;4859977;29;20079;-75
2022/09/26 06:18:48;;;;;;;0.20;0.20;;;10.80;99.90;;;;;;4875003;29;20056;-75
2022/09/26 06:21:16;;;;;;;0.20;0.20;;;10.80;99.90;;;;;;4852564;29;20045;-75
2022/09/26 06:23:48;;;;;;;0.20;0.20;;;10.80;99.90;;;;;;4856803;29;20152;-74
2022/09/26 06:26:18;;;;;;;0.20;0.20;;;10.80;99.90;;;;;;4857932;29;20093;-77
2022/09/26 06:28:44;;;;;;;0.10;0.10;;;10.80;99.90;;;;;;4872432;29;20112;-76
2022/09/26 06:31:15;;;;;;;0.17;0.17;;;10.70;99.90;;;;;;4875276;29;20750;-77
2022/09/26 06:33:41;;;;;;;0.10;0.10;;;10.70;99.90;;;;;;4856578;29;20089;-76
2022/09/26 06:36:09;;;;;;;0.15;0.15;;;10.70;99.90;;;;;;4858265;29;20119;-78
2022/09/26 06:38:35;;;;;;;0.20;0.20;;;10.70;99.90;;;;;;4875676;29;20052;-77
2022/09/26 06:41:01;;;;;;;0.10;0.10;;;10.80;99.90;;;;;;4881265;29;20049;-75
2022/09/26 06:43:27;;;;;;;0.10;0.10;;;10.70;99.90;;;;;;4880023;29;20450;-76
2022/09/26 06:45:52;;;;;;;0.13;0.13;;;10.70;99.90;;;;;;4858699;29;20045;-75
2022/09/26 06:48:21;;;;;;;0.20;0.20;;;10.70;99.90;;;;;;4875198;29;20135;-76
2022/09/26 06:50:51;;;;;;;0.17;0.17;;;10.70;99.90;;;;;;4875536;29;20045;-76
2022/09/26 06:53:17;;;;;;;0.20;0.20;;;10.70;99.90;;;;;;4856383;29;20045;-76
2022/09/26 06:55:46;;;;;;;0.20;0.20;;;10.70;99.90;;;;;;4876685;29;20041;-76
2022/09/26 06:58:11;;;;;;;0.20;0.20;;;10.60;99.90;;;;;;4860949;29;20037;-75
2022/09/26 07:00:37;;;;;;;0.20;0.20;;;10.60;99.90;;;;;;4860791;29;20068;-75
2022/09/26 07:03:07;;;;;;;0.20;0.20;;;10.70;99.90;;;;;;4874089;29;20048;-74
2022/09/26 07:05:33;;;;;;;0.20;0.20;;;10.60;99.90;;;;;;4874942;29;20144;-74
2022/09/26 07:07:59;;;;;;;0.20;0.20;;;10.60;99.90;;;;;;4860700;29;20050;-75
2022/09/26 07:10:26;;;;;;;0.10;0.10;;;10.60;99.90;;;;;;4856713;29;20532;-75
2022/09/26 07:13:01;;;;;;;0.22;0.22;;;10.60;99.90;;;;;;4874361;29;20379;-77
2022/09/26 07:15:29;;;;;;;0.13;0.13;;;10.70;99.90;;;;;;4876101;29;20053;-75
2022/09/26 07:18:00;;;;;;;0.20;0.20;;;10.70;99.90;;;;;;4874088;29;20087;-75
2022/09/26 07:20:28;;;;;;;0.20;0.20;;;10.70;99.90;;;;;;4872696;29;20125;-76
2022/09/26 07:22:53;;;;;;;0.20;0.20;;;10.70;99.90;;;;;;4874479;29;20370;-74
2022/09/26 07:25:22;;;;;;;0.20;0.20;;;10.70;99.90;;;;;;4870016;29;20045;-75
2022/09/26 07:27:50;;;;;;;0.20;0.20;;;10.80;99.90;;;;;;4874712;29;20087;-73
2022/09/26 07:30:15;;;;;;;0.20;0.20;;;10.70;99.90;;;;;;4860770;29;20132;-73
2022/09/26 07:32:45;;;;;;;0.20;0.20;;;10.70;99.90;;;;;;4873658;29;20144;-73
2022/09/26 07:35:11;;;;;;;0.10;0.10;;;10.80;99.90;;;;;;4859313;29;20453;-74
2022/09/26 07:37:37;;;;;;;0.20;0.20;;;10.80;99.90;;;;;;4854436;29;20200;-74
2022/09/26 07:40:04;;;;;;;0.20;0.20;;;10.70;99.90;;;;;;4856835;29;20080;-74
2022/09/26 07:42:30;;;;;;;0.20;0.20;;;10.70;99.90;;;;;;4858301;29;20041;-74
2022/09/26 07:44:56;;;;;;;0.10;0.10;;;10.70;99.90;;;;;;4880107;29;20052;-75
2022/09/26 07:50:21;;;;;;;0.20;0.20;;;10.70;99.90;;;;;;4853639;29;20197;-74
2022/09/26 07:52:49;;;;;;;0.20;0.20;;;10.80;99.90;;;;;;4877959;29;20056;-74
2022/09/26 07:55:18;;;;;;;0.20;0.20;;;10.70;99.90;;;;;;4865556;29;20060;-73
2022/09/26 07:57:48;;;;;;;0.20;0.20;;;10.80;99.90;;;;;;4861233;29;20041;-74
2022/09/26 08:00:16;;;;;;;0.20;0.20;;;10.70;99.90;;;;;;4860598;29;20059;-73
2022/09/26 08:02:45;;;;;;;0.20;0.20;;;10.80;99.90;;;;;;4871272;29;20528;-73
2022/09/26 08:05:16;;;;;;;0.15;0.15;;;10.80;99.90;;;;;;4874063;29;20057;-74
2022/09/26 08:07:41;;;;;;;0.20;0.20;;;10.80;99.90;;;;;;4886789;29;20131;-74
2022/09/26 08:10:14;;;;;;;0.20;0.20;;;10.80;99.90;;;;;;4861388;29;20173;-75
2022/09/26 08:12:39;;;;;;;0.10;0.10;;;10.80;99.90;;;;;;4877314;29;20122;-77
2022/09/26 08:15:06;;;;;;;0.10;0.10;;;10.90;99.90;;;;;;4867002;29;20518;-77
2022/09/26 08:17:33;;;;;;;0.20;0.20;;;11.00;99.90;;;;;;4897628;29;20093;-78
2022/09/26 08:19:59;;;;;;;0.20;0.20;;;11.10;99.90;;;;;;4880520;29;20048;-77
2022/09/26 08:22:26;;;;;;;0.20;0.20;;;11.00;99.90;;;;;;4875551;29;20052;-77
2022/09/26 08:24:53;;;;;;;0.10;0.10;;;11.10;99.90;;;;;;4860526;29;20045;-76
2022/09/26 08:27:21;;;;;;;1.65;0.68;;;11.20;99.90;;;;;;4859001;29;20057;-77
2022/09/26 08:29:49;;;;;;;0.20;0.20;;;11.20;99.90;;;;;;4877340;29;20446;-76
2022/09/26 08:32:16;;;;;;;0.20;0.20;;;11.20;99.90;;;;;;4861000;29;20049;-76
2022/09/26 08:34:43;;;;;;;0.20;0.20;;;11.20;99.90;;;;;;4857221;29;20061;-76
2022/09/26 08:37:09;;;;;;;0.20;0.20;;;11.20;99.90;;;;;;4874472;29;20113;-75
2022/09/26 08:39:34;;;;;;;0.10;0.10;;;11.30;99.90;;;;;;4859790;29;20615;-77
2022/09/26 08:42:16;;;;;;;0.20;0.20;;;11.30;99.90;;;;;;4858709;29;20478;-76
2022/09/26 08:45:01;;;;;;;0.20;0.20;;;11.30;99.90;;;;;;4876407;29;20129;-76
2022/09/26 08:47:39;;;;;;;0.20;0.20;;;11.30;99.90;;;;;;4884430;29;20518;-77
2022/09/26 08:50:19;;;;;;;0.10;0.10;;;11.30;99.90;;;;;;4880228;29;20089;-77
2022/09/26 08:52:54;;;;;;;0.17;0.17;;;11.30;99.90;;;;;;4891730;29;20057;-74
2022/09/26 08:55:33;;;;;;;0.15;0.15;;;11.30;99.90;;;;;;4857038;29;20041;-74
2022/09/26 08:58:11;;;;;;;0.20;0.20;;;11.30;99.90;;;;;;4874411;29;20665;-75
2022/09/26 09:00:37;;;;;;;0.10;0.10;;;11.40;99.90;;;;;;4858673;29;20112;-75
2022/09/26 09:03:09;;;;;;;0.17;0.17;;;11.30;99.90;;;;;;4873825;29;20041;-75
2022/09/26 09:05:38;;;;;;;;;;;11.30;99.90;;;;;;4877205;29;20049;-73
2022/09/26 09:08:09;;;;;;;0.10;0.10;;;11.30;99.90;;;;;;4876364;29;20035;-74
2022/09/26 09:11:05;;;;;;;0.15;0.15;;;11.30;99.90;;;;;;4875767;29;20460;-75
2022/09/26 09:13:59;;;;;;;0.13;0.13;;;11.40;99.90;;;;;;4868106;29;20060;-75
2022/09/26 09:16:52;;;;;;;0.10;0.10;;;11.30;99.90;;;;;;4863356;29;20085;-74
2022/09/26 09:19:49;;;;;;;0.15;0.15;;;11.30;99.90;;;;;;4854268;29;20043;-75
2022/09/26 09:22:53;;;;;;;0.20;0.20;;;11.30;99.90;;;;;;4878307;29;20074;-75
2022/09/26 09:25:33;;;;;;;0.10;0.10;;;11.40;99.90;;;;;;4876572;29;20107;-77
2022/09/26 09:28:17;;;;;;;0.20;0.20;;;11.40;99.90;;;;;;4858793;29;20068;-77
2022/09/26 09:30:54;;;;;;;0.20;0.20;;;11.40;99.90;;;;;;4874588;29;20637;-78
2022/09/26 09:33:35;;;;;;;0.10;0.10;;;11.50;99.90;;;;;;4876259;29;20040;-77
2022/09/26 09:36:24;;;;;;;0.13;0.13;;;11.50;99.90;;;;;;4875845;29;20085;-76
2022/09/26 09:38:52;;;;;;;0.20;0.20;;;11.50;99.90;;;;;;4858768;29;20076;-78
2022/09/26 09:41:34;;;;;;;0.13;0.13;;;11.50;99.90;;;;;;4861309;29;20045;-78
2022/09/26 09:44:02;;;;;;;;;;;11.50;99.90;;;;;;4873557;29;20063;-79
2022/09/26 09:46:34;;;;;;;0.20;0.20;;;11.50;99.90;;;;;;4859548;29;20079;-77
2022/09/26 09:49:08;;;;;;;0.20;0.20;;;11.50;99.90;;;;;;4876086;29;20377;-78
2022/09/26 09:52:00;;;;;;;0.20;0.20;;;;;;;;;;4878956;29;20029;-79
2022/09/26 09:54:35;;;;;;;0.17;0.17;;;;;;;;;;4879267;29;20061;-78
2022/09/26 09:57:07;;;;;;;0.20;0.20;;;;;;;;;;4877439;29;20057;-79
2022/09/26 09:59:46;;;;;;;0.20;0.20;;;;;;;;;;4858206;29;20096;-80
2022/09/26 10:02:31;;;;;;;0.10;0.10;;;;;;;;;;4860035;29;20051;-82
2022/09/26 10:05:15;;;;;;;0.20;0.20;;;;;;;;;;4858120;29;20049;-80
2022/09/26 10:07:45;;;;;;;0.20;0.20;;;;;;;;;;4870897;29;20064;-82
2022/09/26 10:10:17;;;;;;;0.20;0.20;;;;;;;;;;4872450;29;20105;-82
2022/09/26 10:12:43;;;;;;;0.20;0.20;;;;;;;;;;4859274;29;20048;-84
2022/09/26 10:15:20;;;;;;;0.20;0.20;;;;;;;;;;4875748;29;20409;-84
2022/09/26 10:17:59;;;;;;;0.10;0.10;;;;;;;;;;4858257;29;20414;-86
2022/09/26 10:20:34;;;;;;;0.35;0.25;;;;;;;;;;4859569;29;20064;-86
2022/09/26 10:23:08;;;;;;;0.17;0.17;;;;;;;;;;4859869;29;20049;-82
2022/09/26 10:25:34;;;;;;;0.20;0.20;;;;;;;;;;4860481;29;20044;-83
2022/09/26 10:28:04;;;;;;;0.20;0.20;;;;;;;;;;4857051;29;20152;-83
2022/09/26 10:30:45;;;;;;;0.20;0.20;;;;;;;;;;4875057;29;20092;-83
2022/09/26 10:33:34;;;;;;;0.20;0.20;;;;;;;;;;4873772;29;20049;-82
2022/09/26 10:36:07;;;;;;;0.20;0.20;;;;;;;;;;4858176;29;20359;-84
2022/09/26 10:40:43;;;;;;;0.20;0.20;;;;;;;;;;4876871;29;20606;-83
2022/09/26 10:41:24;;;;;;;0.20;0.20;;;;;;;;;;4857778;29;20064;-86
2022/09/26 10:43:56;;;;;;;0.20;0.20;;;;;;;;;;4860407;29;20041;-84
2022/09/26 10:46:25;;;;;;;0.20;0.20;;;;;;;;;;4874565;29;20049;-83
2022/09/26 10:49:00;;;;;;;0.17;0.17;;;;;;;;;;4858073;29;20045;-85
2022/09/26 10:51:59;;;;;;;0.20;0.20;;;;;;;;;;4859296;29;20053;-85
2022/09/26 10:54:32;;;;;;;0.20;0.20;;;;;;;;;;4827204;29;20124;-87
2022/09/26 10:56:58;;;;;;;0.20;0.20;;;;;;;;;;4860929;29;20045;-81
2022/09/26 10:59:26;;;;;;;0.20;0.20;;;;;;;;;;4858016;29;20136;-83
2022/09/26 11:01:55;;;;;;;0.20;0.20;;;;;;;;;;4863798;29;20076;-78
2022/09/26 11:07:25;;;;;;;0.20;0.20;;;;;;;;;;4866483;29;20124;-80
2022/09/26 11:09:52;;;;;;;0.10;0.10;;;;;;;;;;4873541;29;20049;-77
2022/09/26 11:12:24;;;;;;;0.20;0.20;;;;;;;;;;4874224;29;20064;-79
2022/09/26 11:14:55;;;;;;;0.20;0.20;;;;;;;;;;4875858;29;20053;-77
2022/09/26 11:17:22;;;;;;;0.20;0.20;;;;;;;;;;4858945;29;20056;-77
2022/09/26 11:19:56;;;;;;;0.15;0.15;;;;;;;;;;4858033;29;20048;-79
2022/09/26 11:22:34;;;;;;;0.20;0.20;;;;;;;;;;4880995;29;20466;-77
2022/09/26 11:25:10;;;;;;;0.10;0.10;;;;;;;;;;4880061;29;20048;-78
2022/09/26 11:27:45;;;;;;;0.20;0.20;;;;;;;;;;4857251;29;21625;-79
2022/09/26 11:30:12;;;;;;;0.20;0.20;;;;;;;;;;4865724;29;20524;-79
2022/09/26 11:32:49;;;;;;;0.10;0.10;;;;;;;;;;4875481;29;20051;-77
2022/09/26 11:35:16;;;;;;;0.20;0.20;;;;;;;;;;4867486;29;20084;-78
2022/09/26 11:37:43;;;;;;;0.20;0.20;;;;;;;;;;4860063;29;20049;-78
2022/09/26 11:40:30;;;;;;;0.20;0.20;;;;;;;;;;4859851;29;20045;-80
2022/09/26 11:42:59;;;;;;;0.20;0.20;;;;;;;;;;4857233;29;20101;-79
2022/09/26 11:45:31;;;;;;;0.10;0.10;;;;;;;;;;4859168;29;20105;-78
2022/09/26 11:48:09;;;;;;;0.10;0.10;;;;;;;;;;4859889;29;20148;-78
2022/09/26 11:50:54;;;;;;;0.10;0.10;;;;;;;;;;4859820;29;20057;-80
2022/09/26 11:53:26;;;;;;;0.10;0.10;;;;;;;;;;4855986;29;20053;-77
2022/09/26 11:55:59;;;;;;;0.20;0.20;;;;;;;;;;4859217;29;20393;-77
2022/09/26 11:58:37;;;;;;;0.20;0.20;;;;;;;;;;4857087;29;20057;-78
2022/09/26 12:01:22;;;;;;;0.10;0.10;;;;;;;;;;4855777;29;20064;-79
2022/09/26 12:04:06;;;;;;;0.10;0.10;;;;;;;;;;4859688;29;20124;-77
2022/09/26 12:06:38;;;;;;;0.17;0.17;;;;;;;;;;4856112;29;20420;-76
2022/09/26 12:09:11;;;;;;;0.20;0.20;;;;;;;;;;4855681;29;20050;-78
2022/09/26 12:11:58;;;;;;;0.20;0.20;;;;;;;;;;4854889;29;20078;-78
2022/09/26 12:14:33;;;;;;;0.20;0.20;;;;;;;;;;4856079;29;20085;-79
2022/09/26 12:17:18;;;;;;;0.10;0.10;;;;;;;;;;4868535;29;20053;-76
2022/09/26 12:19:44;;;;;;;0.20;0.20;;;;;;;;;;4863384;29;20512;-77
2022/09/26 12:22:39;;;;;;;0.10;0.10;;;;;;;;;;4874127;29;20576;-78
2022/09/26 12:25:06;;;;;;;0.20;0.20;;;;;;;;;;4846074;29;20229;-78
2022/09/26 12:27:59;;;;;;;0.20;0.20;;;;;;;;;;4857700;29;20155;-78
2022/09/26 12:30:30;;;;;;;0.20;0.20;;;;;;;;;;4857664;29;20061;-78
2022/09/26 12:33:31;;;;;;;0.20;0.20;;;11.90;99.90;;;;;;4861044;29;20056;-77
2022/09/26 12:36:17;;;;;;;0.20;0.20;;;11.90;99.90;;;;;;4827375;29;20053;-77
2022/09/26 12:39:23;;;;;;;0.10;0.10;;;12.00;99.90;;;;;;4859378;29;20064;-76
2022/09/26 12:42:13;;;;;;;0.10;0.10;;;11.90;99.90;;;;;;4846576;29;20093;-78
2022/09/26 12:45:05;;;;;;;0.10;0.10;;;11.90;99.90;;;;;;4856321;29;20057;-77
2022/09/26 12:47:33;;;;;;;0.10;0.10;;;12.00;99.90;;;;;;4853355;29;20088;-75
2022/09/26 12:50:28;;;;;;;0.20;0.20;;;12.00;99.90;;;;;;4859041;29;20049;-76
2022/09/26 12:52:53;;;;;;;0.20;0.20;;;12.00;99.90;;;;;;4858235;29;20120;-77
2022/09/26 12:55:30;;;;;;;0.20;0.20;;;12.10;99.90;;;;;;4858051;29;20084;-77
2022/09/26 12:58:20;;;;;;;0.10;0.10;;;12.10;99.90;;;;;;4857860;29;20477;-77
2022/09/26 13:00:57;;;;;;;0.20;0.20;;;12.20;99.90;;;;;;4859252;29;20052;-76
2022/09/26 13:04:21;;;;;;;0.20;0.20;;;12.20;99.90;;;;;;4856160;29;20580;-76
2022/09/26 13:06:57;;;;;;;0.20;0.20;;;12.20;99.90;;;;;;4812246;29;20132;-79
2022/09/26 13:09:28;;;;;;;0.17;0.17;;;12.20;99.90;;;;;;4858913;29;20056;-78
2022/09/26 13:12:29;;;;;;;0.10;0.10;;;12.20;99.90;;;;;;4857095;29;20101;-77
2022/09/26 13:15:04;;;;;;;0.20;0.20;;;12.30;99.90;;;;;;4864644;29;20061;-74
2022/09/26 13:17:41;;;;;;;0.10;0.10;;;12.40;99.90;;;;;;4861130;29;20091;-77
2022/09/26 13:20:20;;;;;;;0.20;0.20;;;12.40;99.90;;;;;;4854728;29;20079;-77
2022/09/26 13:22:53;;;;;;;0.10;0.10;;;12.50;99.90;;;;;;4856235;29;20090;-76
2022/09/26 13:25:37;;;;;;;0.20;0.20;;;12.50;99.90;;;;;;4853032;29;20573;-76
2022/09/26 13:28:23;;;;;;;0.20;0.20;;;12.60;99.90;;;;;;4866624;29;20076;-76
2022/09/26 13:31:17;;;;;;;0.10;0.10;;;12.60;99.90;;;;;;4858438;29;20132;-76
2022/09/26 13:34:01;;;;;;;0.20;0.20;;;12.60;99.90;;;;;;4857170;29;20116;-76
2022/09/26 13:36:30;;;;;;;0.20;0.20;;;12.70;99.90;;;;;;4856571;29;20057;-76
2022/09/26 13:39:05;;;;;;;0.20;0.20;;;12.70;99.90;;;;;;4874512;29;20101;-77
2022/09/26 13:41:40;;;;;;;0.20;0.20;;;12.70;99.90;;;;;;4877166;29;20048;-76
2022/09/26 13:44:08;;;;;;;0.10;0.10;;;12.70;99.90;;;;;;4858888;29;20060;-76
2022/09/26 13:47:14;;;;;;;0.20;0.20;;;12.80;99.90;;;;;;4856524;29;20041;-77
2022/09/26 13:49:55;;;;;;;0.20;0.20;;;12.90;99.90;;;;;;4828653;29;20065;-77
2022/09/26 13:52:51;;;;;;;0.20;0.20;;;12.90;99.90;;;;;;4876337;29;20144;-75